PDT6134 KRIC-KPHL
Flight info
| Callsign | PDT6134 |
|---|---|
| Flight time | 0h 44m |
| Altitude | 23000 |
| Route | LUCYL6 LUCYL HYTRA PAATS4 |
| Aircraft | E145/M-SDFGIRW/S |
Departure
| Time | 2026-04-23 17:37 |
|---|---|
| Airport | Richmond International Airport (KRIC) |
Arrival
| Time | 2026-04-23 18:22 |
|---|---|
| Airport | Philadelphia International Airport (KPHL) |
| Time | Latitude | Longitude | Altitude | Speed | Heading |
|---|---|---|---|---|---|
| 2026-04-23 17:09 | 37.51054 | -77.33029 | 164 ft | 0 kts | 193° |
| 2026-04-23 17:25 | 37.51056 | -77.33029 | 164 ft | 2 kts | 193° |
| 2026-04-23 17:26 | 37.51086 | -77.33021 | 164 ft | 2 kts | 193° |
| 2026-04-23 17:26 | 37.51110 | -77.33014 | 164 ft | 1 kts | 192° |
| 2026-04-23 17:27 | 37.51135 | -77.33027 | 164 ft | 2 kts | 115° |
| 2026-04-23 17:27 | 37.51137 | -77.33036 | 164 ft | 0 kts | 102° |
| 2026-04-23 17:29 | 37.51137 | -77.33035 | 164 ft | 0 kts | 102° |
| 2026-04-23 17:29 | 37.51134 | -77.33021 | 164 ft | 4 kts | 104° |
| 2026-04-23 17:29 | 37.51096 | -77.32854 | 164 ft | 9 kts | 134° |
| 2026-04-23 17:30 | 37.51050 | -77.32847 | 164 ft | 10 kts | 189° |
| 2026-04-23 17:30 | 37.50874 | -77.32812 | 164 ft | 13 kts | 193° |
| 2026-04-23 17:30 | 37.50775 | -77.32842 | 163 ft | 15 kts | 193° |
| 2026-04-23 17:31 | 37.50658 | -77.32877 | 161 ft | 18 kts | 193° |
| 2026-04-23 17:31 | 37.50541 | -77.32912 | 161 ft | 15 kts | 193° |
| 2026-04-23 17:31 | 37.50469 | -77.32896 | 161 ft | 11 kts | 118° |
| 2026-04-23 17:31 | 37.50447 | -77.32790 | 161 ft | 13 kts | 97° |
| 2026-04-23 17:32 | 37.50440 | -77.32667 | 161 ft | 14 kts | 95° |
| 2026-04-23 17:32 | 37.50431 | -77.32530 | 161 ft | 16 kts | 95° |
| 2026-04-23 17:32 | 37.50422 | -77.32378 | 161 ft | 17 kts | 95° |
| 2026-04-23 17:32 | 37.50413 | -77.32217 | 161 ft | 19 kts | 94° |
| 2026-04-23 17:33 | 37.50402 | -77.32045 | 161 ft | 20 kts | 95° |
| 2026-04-23 17:33 | 37.50391 | -77.31860 | 161 ft | 21 kts | 95° |
| 2026-04-23 17:33 | 37.50380 | -77.31682 | 161 ft | 13 kts | 94° |
| 2026-04-23 17:33 | 37.50325 | -77.31592 | 161 ft | 14 kts | 147° |
| 2026-04-23 17:34 | 37.50236 | -77.31521 | 161 ft | 15 kts | 148° |
| 2026-04-23 17:34 | 37.50138 | -77.31443 | 161 ft | 17 kts | 147° |
| 2026-04-23 17:34 | 37.49918 | -77.31267 | 159 ft | 20 kts | 148° |
| 2026-04-23 17:35 | 37.49790 | -77.31164 | 158 ft | 22 kts | 146° |
| 2026-04-23 17:35 | 37.49522 | -77.30949 | 158 ft | 19 kts | 147° |
| 2026-04-23 17:35 | 37.49509 | -77.30854 | 158 ft | 12 kts | 62° |
| 2026-04-23 17:36 | 37.49556 | -77.30759 | 157 ft | 13 kts | 58° |
| 2026-04-23 17:36 | 37.49582 | -77.30712 | 158 ft | 4 kts | 42° |
| 2026-04-23 17:36 | 37.49613 | -77.30717 | 158 ft | 1 kts | 328° |
| 2026-04-23 17:36 | 37.49676 | -77.30766 | 158 ft | 39 kts | 327° |
| 2026-04-23 17:37 | 37.50115 | -77.31119 | 160 ft | 107 kts | 328° |
| 2026-04-23 17:37 | 37.50906 | -77.31748 | 204 ft | 152 kts | 328° |
| 2026-04-23 17:37 | 37.52880 | -77.32792 | 1093 ft | 177 kts | 4° |
| 2026-04-23 17:38 | 37.54097 | -77.32226 | 1407 ft | 209 kts | 37° |
| 2026-04-23 17:38 | 37.55018 | -77.30597 | 1510 ft | 246 kts | 60° |
| 2026-04-23 17:38 | 37.56075 | -77.28860 | 2039 ft | 256 kts | 46° |
| 2026-04-23 17:38 | 37.57303 | -77.27219 | 2843 ft | 255 kts | 44° |
| 2026-04-23 17:39 | 37.58539 | -77.25639 | 3562 ft | 258 kts | 43° |
| 2026-04-23 17:39 | 37.59800 | -77.24043 | 4262 ft | 261 kts | 43° |
| 2026-04-23 17:39 | 37.61098 | -77.22403 | 4952 ft | 264 kts | 43° |
| 2026-04-23 17:39 | 37.62386 | -77.20776 | 5639 ft | 266 kts | 42° |
| 2026-04-23 17:40 | 37.63707 | -77.19108 | 6303 ft | 269 kts | 43° |
| 2026-04-23 17:40 | 37.65030 | -77.17435 | 6968 ft | 271 kts | 43° |
| 2026-04-23 17:40 | 37.66379 | -77.15729 | 7638 ft | 273 kts | 42° |
| 2026-04-23 17:40 | 37.67653 | -77.13950 | 8271 ft | 277 kts | 50° |
| 2026-04-23 17:41 | 37.69059 | -77.12349 | 8846 ft | 274 kts | 24° |
| 2026-04-23 17:41 | 37.72223 | -77.09644 | 10087 ft | 280 kts | 35° |
| 2026-04-23 17:41 | 37.73773 | -77.08097 | 10593 ft | 286 kts | 35° |
| 2026-04-23 17:42 | 37.76998 | -77.04848 | 11354 ft | 305 kts | 35° |
| 2026-04-23 17:42 | 37.78674 | -77.03156 | 11729 ft | 314 kts | 35° |
| 2026-04-23 17:42 | 37.80415 | -77.01397 | 12119 ft | 322 kts | 35° |
| 2026-04-23 17:43 | 37.82188 | -76.99605 | 12558 ft | 326 kts | 36° |
| 2026-04-23 17:43 | 37.83952 | -76.97819 | 13068 ft | 328 kts | 35° |
| 2026-04-23 17:43 | 37.85745 | -76.96004 | 13562 ft | 330 kts | 35° |
| 2026-04-23 17:43 | 37.87544 | -76.94183 | 14042 ft | 333 kts | 35° |
| 2026-04-23 17:44 | 37.89333 | -76.92371 | 14556 ft | 334 kts | 35° |
| 2026-04-23 17:44 | 37.91122 | -76.90483 | 15027 ft | 338 kts | 40° |
| 2026-04-23 17:44 | 37.94470 | -76.86237 | 15987 ft | 342 kts | 41° |
| 2026-04-23 17:45 | 37.96155 | -76.84098 | 16475 ft | 345 kts | 41° |
| 2026-04-23 17:45 | 37.99560 | -76.79776 | 17361 ft | 349 kts | 42° |
| 2026-04-23 17:45 | 38.01275 | -76.77595 | 17846 ft | 349 kts | 42° |
| 2026-04-23 17:46 | 38.04685 | -76.73257 | 18935 ft | 347 kts | 41° |
| 2026-04-23 17:46 | 38.06380 | -76.71098 | 19474 ft | 345 kts | 41° |
| 2026-04-23 17:46 | 38.08073 | -76.68940 | 20030 ft | 343 kts | 41° |
| 2026-04-23 17:47 | 38.09724 | -76.66818 | 20521 ft | 342 kts | 41° |
| 2026-04-23 17:47 | 38.11409 | -76.64628 | 21030 ft | 341 kts | 41° |
| 2026-04-23 17:47 | 38.14699 | -76.60350 | 22034 ft | 338 kts | 41° |
| 2026-04-23 17:48 | 38.16324 | -76.58233 | 22527 ft | 337 kts | 41° |
| 2026-04-23 17:48 | 38.17963 | -76.56098 | 22957 ft | 337 kts | 41° |
| 2026-04-23 17:48 | 38.19619 | -76.53941 | 23005 ft | 347 kts | 41° |
| 2026-04-23 17:48 | 38.21351 | -76.51682 | 23012 ft | 357 kts | 41° |
| 2026-04-23 17:49 | 38.23105 | -76.49392 | 23012 ft | 367 kts | 41° |
| 2026-04-23 17:49 | 38.24919 | -76.47022 | 23014 ft | 376 kts | 41° |
| 2026-04-23 17:49 | 38.26762 | -76.44612 | 23015 ft | 384 kts | 41° |
| 2026-04-23 17:49 | 38.28657 | -76.42133 | 23014 ft | 391 kts | 41° |
| 2026-04-23 17:50 | 38.30709 | -76.39926 | 23018 ft | 393 kts | 33° |
| 2026-04-23 17:50 | 38.35133 | -76.35628 | 23012 ft | 405 kts | 33° |
| 2026-04-23 17:50 | 38.37394 | -76.33421 | 23003 ft | 411 kts | 34° |
| 2026-04-23 17:51 | 38.39682 | -76.31185 | 23003 ft | 415 kts | 34° |
| 2026-04-23 17:51 | 38.41982 | -76.28937 | 23001 ft | 420 kts | 33° |
| 2026-04-23 17:51 | 38.46615 | -76.24400 | 23001 ft | 424 kts | 33° |
| 2026-04-23 17:52 | 38.48963 | -76.22098 | 22993 ft | 423 kts | 33° |
| 2026-04-23 17:52 | 38.53605 | -76.17543 | 23000 ft | 422 kts | 33° |
| 2026-04-23 17:52 | 38.55932 | -76.15256 | 23001 ft | 422 kts | 33° |
| 2026-04-23 17:53 | 38.60586 | -76.10677 | 23003 ft | 421 kts | 33° |
| 2026-04-23 17:53 | 38.62899 | -76.08406 | 23000 ft | 418 kts | 33° |
| 2026-04-23 17:53 | 38.65209 | -76.06250 | 23002 ft | 415 kts | 32° |
| 2026-04-23 17:54 | 38.67540 | -76.04074 | 23003 ft | 413 kts | 31° |
| 2026-04-23 17:54 | 38.69885 | -76.01883 | 23001 ft | 411 kts | 32° |
| 2026-04-23 17:54 | 38.74497 | -75.97568 | 23001 ft | 407 kts | 31° |
| 2026-04-23 17:55 | 38.79076 | -75.93278 | 23004 ft | 404 kts | 31° |
| 2026-04-23 17:55 | 38.81348 | -75.91146 | 23003 ft | 406 kts | 31° |
| 2026-04-23 17:55 | 38.83628 | -75.89006 | 22993 ft | 407 kts | 31° |
| 2026-04-23 17:56 | 38.85913 | -75.86859 | 23003 ft | 408 kts | 31° |
| 2026-04-23 17:56 | 38.90492 | -75.82550 | 23000 ft | 410 kts | 31° |
| 2026-04-23 17:56 | 38.92784 | -75.80391 | 22811 ft | 412 kts | 31° |
| 2026-04-23 17:57 | 38.95080 | -75.78226 | 22271 ft | 405 kts | 31° |
| 2026-04-23 17:57 | 38.97343 | -75.76090 | 21762 ft | 397 kts | 31° |
| 2026-04-23 17:57 | 39.01668 | -75.72003 | 20739 ft | 379 kts | 31° |
| 2026-04-23 17:58 | 39.03782 | -75.70003 | 20220 ft | 369 kts | 30° |
| 2026-04-23 17:58 | 39.05896 | -75.68278 | 19719 ft | 352 kts | 17° |
| 2026-04-23 17:58 | 39.08191 | -75.67609 | 19259 ft | 333 kts | 0° |
| 2026-04-23 17:58 | 39.10506 | -75.67336 | 18781 ft | 325 kts | 0° |
| 2026-04-23 17:59 | 39.12751 | -75.67080 | 18330 ft | 320 kts | 360° |
| 2026-04-23 17:59 | 39.14943 | -75.66836 | 17880 ft | 315 kts | 360° |
| 2026-04-23 17:59 | 39.17111 | -75.66598 | 17425 ft | 310 kts | 360° |
| 2026-04-23 17:59 | 39.19246 | -75.66364 | 16971 ft | 306 kts | 359° |
| 2026-04-23 18:00 | 39.20639 | -75.66212 | 16688 ft | 304 kts | 359° |
| 2026-04-23 18:00 | 39.23421 | -75.65908 | 16106 ft | 299 kts | 359° |
| 2026-04-23 18:00 | 39.25487 | -75.65682 | 15661 ft | 296 kts | 359° |
| 2026-04-23 18:00 | 39.27534 | -75.65443 | 15207 ft | 295 kts | 3° |
| 2026-04-23 18:01 | 39.29473 | -75.64477 | 14765 ft | 305 kts | 26° |
| 2026-04-23 18:01 | 39.31207 | -75.62949 | 14363 ft | 303 kts | 27° |
| 2026-04-23 18:01 | 39.32953 | -75.61427 | 13967 ft | 300 kts | 27° |
| 2026-04-23 18:01 | 39.34672 | -75.59928 | 13567 ft | 297 kts | 26° |
| 2026-04-23 18:02 | 39.35817 | -75.58931 | 13300 ft | 295 kts | 27° |
| 2026-04-23 18:02 | 39.38035 | -75.56957 | 12777 ft | 295 kts | 33° |
| 2026-04-23 18:02 | 39.39285 | -75.54822 | 12407 ft | 307 kts | 60° |
| 2026-04-23 18:02 | 39.40053 | -75.52230 | 12035 ft | 306 kts | 63° |
| 2026-04-23 18:03 | 39.40818 | -75.49660 | 11651 ft | 305 kts | 63° |
| 2026-04-23 18:03 | 39.41579 | -75.47110 | 11273 ft | 302 kts | 63° |
| 2026-04-23 18:03 | 39.42323 | -75.44621 | 10902 ft | 299 kts | 63° |
| 2026-04-23 18:03 | 39.43080 | -75.42091 | 10516 ft | 296 kts | 62° |
| 2026-04-23 18:04 | 39.43829 | -75.39588 | 10180 ft | 290 kts | 62° |
| 2026-04-23 18:04 | 39.44553 | -75.37167 | 9887 ft | 284 kts | 63° |
| 2026-04-23 18:04 | 39.45267 | -75.34779 | 9590 ft | 279 kts | 63° |
| 2026-04-23 18:04 | 39.45964 | -75.32452 | 9334 ft | 274 kts | 61° |
| 2026-04-23 18:05 | 39.47014 | -75.30534 | 9112 ft | 258 kts | 33° |
| 2026-04-23 18:05 | 39.48473 | -75.29227 | 8913 ft | 254 kts | 27° |
| 2026-04-23 18:05 | 39.49943 | -75.27962 | 8690 ft | 253 kts | 27° |
| 2026-04-23 18:05 | 39.51424 | -75.26698 | 8467 ft | 253 kts | 27° |
| 2026-04-23 18:06 | 39.52891 | -75.25446 | 8235 ft | 253 kts | 27° |
| 2026-04-23 18:06 | 39.54355 | -75.24195 | 8006 ft | 253 kts | 27° |
| 2026-04-23 18:06 | 39.55825 | -75.22939 | 7789 ft | 253 kts | 28° |
| 2026-04-23 18:06 | 39.57302 | -75.21677 | 7574 ft | 253 kts | 28° |
| 2026-04-23 18:07 | 39.58775 | -75.20418 | 7343 ft | 253 kts | 28° |
| 2026-04-23 18:07 | 39.60238 | -75.19167 | 7109 ft | 253 kts | 28° |
| 2026-04-23 18:07 | 39.61702 | -75.17913 | 6874 ft | 252 kts | 28° |
| 2026-04-23 18:07 | 39.63144 | -75.16675 | 6641 ft | 247 kts | 28° |
| 2026-04-23 18:08 | 39.64102 | -75.15850 | 6485 ft | 243 kts | 29° |
| 2026-04-23 18:08 | 39.65988 | -75.14220 | 6151 ft | 238 kts | 29° |
| 2026-04-23 18:08 | 39.67342 | -75.13045 | 5916 ft | 234 kts | 29° |
| 2026-04-23 18:08 | 39.68699 | -75.11865 | 5683 ft | 231 kts | 30° |
| 2026-04-23 18:09 | 39.70022 | -75.10711 | 5477 ft | 228 kts | 30° |
| 2026-04-23 18:09 | 39.71328 | -75.09570 | 5260 ft | 226 kts | 29° |
| 2026-04-23 18:09 | 39.72632 | -75.08429 | 5032 ft | 223 kts | 30° |
| 2026-04-23 18:09 | 39.73886 | -75.07269 | 4794 ft | 224 kts | 40° |
| 2026-04-23 18:10 | 39.74864 | -75.05673 | 4586 ft | 223 kts | 46° |
| 2026-04-23 18:10 | 39.75874 | -75.04155 | 4384 ft | 220 kts | 44° |
| 2026-04-23 18:10 | 39.76887 | -75.02688 | 4122 ft | 218 kts | 44° |
| 2026-04-23 18:10 | 39.77907 | -75.01231 | 3884 ft | 216 kts | 44° |
| 2026-04-23 18:11 | 39.78906 | -74.99808 | 3659 ft | 214 kts | 44° |
| 2026-04-23 18:11 | 39.79907 | -74.98383 | 3448 ft | 211 kts | 44° |
| 2026-04-23 18:11 | 39.80875 | -74.97003 | 3294 ft | 206 kts | 44° |
| 2026-04-23 18:11 | 39.81838 | -74.95632 | 3135 ft | 201 kts | 44° |
| 2026-04-23 18:12 | 39.82764 | -74.94312 | 3037 ft | 192 kts | 44° |
| 2026-04-23 18:12 | 39.83536 | -74.92978 | 2969 ft | 181 kts | 66° |
| 2026-04-23 18:12 | 39.83878 | -74.91410 | 2999 ft | 183 kts | 70° |
| 2026-04-23 18:12 | 39.84215 | -74.89788 | 2996 ft | 186 kts | 70° |
| 2026-04-23 18:13 | 39.84550 | -74.88171 | 2995 ft | 187 kts | 70° |
| 2026-04-23 18:13 | 39.84892 | -74.86515 | 2995 ft | 188 kts | 68° |
| 2026-04-23 18:13 | 39.85623 | -74.85220 | 3001 ft | 176 kts | 25° |
| 2026-04-23 18:13 | 39.86747 | -74.84576 | 3004 ft | 175 kts | 17° |
| 2026-04-23 18:14 | 39.87912 | -74.84093 | 2989 ft | 173 kts | 358° |
| 2026-04-23 18:14 | 39.89115 | -74.84287 | 3005 ft | 171 kts | 347° |
| 2026-04-23 18:14 | 39.90288 | -74.84558 | 2996 ft | 173 kts | 347° |
| 2026-04-23 18:14 | 39.91481 | -74.84835 | 2994 ft | 174 kts | 348° |
| 2026-04-23 18:15 | 39.92642 | -74.85263 | 2984 ft | 173 kts | 325° |
| 2026-04-23 18:15 | 39.93363 | -74.86491 | 3015 ft | 172 kts | 298° |
| 2026-04-23 18:15 | 39.93886 | -74.87900 | 2996 ft | 174 kts | 296° |
| 2026-04-23 18:15 | 39.94027 | -74.89430 | 2995 ft | 176 kts | 260° |
| 2026-04-23 18:16 | 39.93716 | -74.90984 | 2997 ft | 177 kts | 260° |
| 2026-04-23 18:16 | 39.93413 | -74.92540 | 2996 ft | 178 kts | 259° |
| 2026-04-23 18:16 | 39.93109 | -74.94094 | 2993 ft | 176 kts | 259° |
| 2026-04-23 18:17 | 39.92501 | -74.97185 | 2991 ft | 174 kts | 259° |
| 2026-04-23 18:17 | 39.92200 | -74.98712 | 2988 ft | 173 kts | 259° |
| 2026-04-23 18:17 | 39.91902 | -75.00223 | 2988 ft | 172 kts | 259° |
| 2026-04-23 18:17 | 39.91608 | -75.01714 | 2989 ft | 170 kts | 259° |
| 2026-04-23 18:18 | 39.91304 | -75.03252 | 2869 ft | 175 kts | 259° |
| 2026-04-23 18:18 | 39.91007 | -75.04755 | 2670 ft | 170 kts | 259° |
| 2026-04-23 18:18 | 39.90716 | -75.06226 | 2456 ft | 167 kts | 260° |
| 2026-04-23 18:18 | 39.90435 | -75.07635 | 2256 ft | 150 kts | 260° |
| 2026-04-23 18:19 | 39.90188 | -75.08878 | 2057 ft | 140 kts | 261° |
| 2026-04-23 18:19 | 39.89945 | -75.10113 | 1882 ft | 141 kts | 261° |
| 2026-04-23 18:19 | 39.89700 | -75.11350 | 1701 ft | 142 kts | 260° |
| 2026-04-23 18:19 | 39.89452 | -75.12597 | 1514 ft | 143 kts | 260° |
| 2026-04-23 18:20 | 39.89206 | -75.13841 | 1320 ft | 141 kts | 259° |
| 2026-04-23 18:20 | 39.88961 | -75.15073 | 1133 ft | 140 kts | 259° |
| 2026-04-23 18:20 | 39.88715 | -75.16308 | 951 ft | 138 kts | 259° |
| 2026-04-23 18:20 | 39.88467 | -75.17523 | 777 ft | 140 kts | 258° |
| 2026-04-23 18:21 | 39.88221 | -75.18743 | 593 ft | 140 kts | 258° |
| 2026-04-23 18:21 | 39.87982 | -75.19978 | 410 ft | 138 kts | 258° |
| 2026-04-23 18:21 | 39.87740 | -75.21181 | 218 ft | 136 kts | 257° |
| 2026-04-23 18:21 | 39.87511 | -75.22354 | 51 ft | 134 kts | 258° |
| 2026-04-23 18:22 | 39.87299 | -75.23424 | 14 ft | 98 kts | 255° |
| 2026-04-23 18:22 | 39.87167 | -75.24083 | 14 ft | 54 kts | 258° |
| 2026-04-23 18:22 | 39.87178 | -75.24361 | 14 ft | 6 kts | 279° |
| 2026-04-23 18:22 | 39.87188 | -75.24425 | 14 ft | 7 kts | 284° |
| 2026-04-23 18:23 | 39.87197 | -75.24470 | 14 ft | 6 kts | 285° |
| 2026-04-23 18:23 | 39.87228 | -75.24348 | 14 ft | 17 kts | 76° |
| 2026-04-23 18:24 | 39.87295 | -75.24000 | 14 ft | 20 kts | 74° |
| 2026-04-23 18:24 | 39.87334 | -75.23815 | 14 ft | 21 kts | 75° |
| 2026-04-23 18:24 | 39.87373 | -75.23616 | 14 ft | 23 kts | 76° |
| 2026-04-23 18:25 | 39.87446 | -75.23262 | 14 ft | 9 kts | 58° |
| 2026-04-23 18:25 | 39.87509 | -75.23264 | 14 ft | 10 kts | 338° |
| 2026-04-23 18:25 | 39.87584 | -75.23303 | 14 ft | 12 kts | 339° |
| 2026-04-23 18:25 | 39.87677 | -75.23348 | 14 ft | 15 kts | 339° |
| 2026-04-23 18:26 | 39.87785 | -75.23402 | 14 ft | 17 kts | 339° |
| 2026-04-23 18:26 | 39.87905 | -75.23438 | 14 ft | 18 kts | 3° |
| 2026-04-23 18:26 | 39.88034 | -75.23481 | 14 ft | 20 kts | 339° |
| 2026-04-23 18:26 | 39.88169 | -75.23548 | 14 ft | 21 kts | 339° |
| 2026-04-23 18:27 | 39.88289 | -75.23607 | 14 ft | 11 kts | 339° |
| 2026-04-23 18:27 | 39.88316 | -75.23688 | 14 ft | 11 kts | 252° |
| 2026-04-23 18:27 | 39.88274 | -75.23787 | 14 ft | 13 kts | 212° |
| 2026-04-23 18:27 | 39.88184 | -75.23817 | 14 ft | 8 kts | 192° |
| 2026-04-23 18:28 | 39.88143 | -75.23824 | 14 ft | 3 kts | 177° |
| 2026-04-23 18:28 | 39.88123 | -75.23797 | 14 ft | 5 kts | 110° |
| 2026-04-23 18:28 | 39.88119 | -75.23781 | 14 ft | 0 kts | 110° |